createdAt,value
2023-02-06T00:01:35.338Z,2.85
2023-02-06T00:04:02.205Z,2.55
2023-02-06T00:06:28.870Z,3.33
2023-02-06T00:08:55.797Z,2.50
2023-02-06T00:11:23.013Z,2.40
2023-02-06T00:13:49.820Z,2.55
2023-02-06T00:16:26.978Z,1.98
2023-02-06T00:18:55.616Z,2.95
2023-02-06T00:21:25.939Z,3.10
2023-02-06T00:23:55.268Z,2.70
2023-02-06T00:26:22.697Z,3.10
2023-02-06T00:28:49.298Z,2.50
2023-02-06T00:31:16.163Z,2.75
2023-02-06T00:33:43.219Z,2.25
2023-02-06T00:36:10.526Z,2.50
2023-02-06T00:38:38.120Z,1.98
2023-02-06T00:41:05.544Z,2.20
2023-02-06T00:43:32.326Z,2.08
2023-02-06T00:45:59.095Z,2.63
2023-02-06T00:48:25.964Z,2.40
2023-02-06T00:50:53.991Z,2.13
2023-02-06T00:53:21.460Z,2.50
2023-02-06T00:55:48.020Z,2.85
2023-02-06T00:58:14.610Z,2.20
2023-02-06T01:00:41.130Z,1.85
2023-02-06T01:03:07.748Z,1.95
2023-02-06T01:05:34.611Z,2.60
2023-02-06T01:08:04.033Z,2.20
2023-02-06T01:10:30.983Z,2.55
2023-02-06T01:12:57.592Z,1.80
2023-02-06T01:15:24.146Z,2.08
2023-02-06T01:17:50.747Z,1.75
2023-02-06T01:20:17.423Z,2.00
2023-02-06T01:22:44.074Z,1.90
2023-02-06T01:25:10.599Z,1.90
2023-02-06T01:27:38.110Z,1.80
2023-02-06T01:30:07.262Z,1.80
2023-02-06T01:35:06.799Z,1.58
2023-02-06T01:39:59.930Z,2.00
2023-02-06T01:42:26.452Z,1.90
2023-02-06T01:45:23.576Z,2.15
2023-02-06T01:47:55.448Z,1.83
2023-02-06T01:50:22.686Z,1.52
2023-02-06T01:52:50.062Z,1.80
2023-02-06T01:55:17.345Z,2.20
2023-02-06T01:57:44.500Z,2.30
2023-02-06T02:00:11.699Z,1.92
2023-02-06T02:02:42.967Z,2.30
2023-02-06T02:05:11.426Z,2.22
2023-02-06T02:08:01.391Z,1.95
2023-02-06T02:10:29.896Z,1.73
2023-02-06T02:12:56.864Z,2.15
2023-02-06T02:15:35.630Z,1.95
2023-02-06T02:18:29.439Z,2.08
2023-02-06T02:21:37.605Z,1.70
2023-02-06T02:24:33.037Z,1.80
2023-02-06T02:27:21.071Z,1.60
2023-02-06T02:29:56.330Z,1.98
2023-02-06T02:32:45.244Z,2.35
2023-02-06T02:35:29.121Z,2.03
2023-02-06T02:38:20.374Z,2.15
2023-02-06T02:40:49.593Z,1.85
2023-02-06T02:43:49.816Z,2.17
2023-02-06T02:46:44.475Z,2.03
2023-02-06T02:49:18.074Z,1.90
2023-02-06T02:51:45.786Z,1.63
2023-02-06T02:54:12.403Z,2.03
2023-02-06T02:56:39.060Z,1.58
2023-02-06T02:59:23.609Z,1.92
2023-02-06T03:01:58.854Z,2.10
2023-02-06T03:04:32.364Z,2.25
2023-02-06T03:07:20.573Z,4.07
2023-02-06T03:09:56.218Z,4.00
2023-02-06T03:13:03.961Z,5.30
2023-02-06T03:15:45.590Z,5.13
2023-02-06T03:18:18.698Z,5.43
2023-02-06T03:20:47.805Z,6.53
2023-02-06T03:25:51.019Z,5.78
2023-02-06T03:28:25.608Z,6.10
2023-02-06T03:30:56.425Z,7.32
2023-02-06T03:33:28.977Z,7.35
2023-02-06T03:35:57.864Z,7.90
2023-02-06T03:38:25.954Z,6.72
2023-02-06T03:40:56.469Z,6.68
2023-02-06T03:43:27.288Z,8.25
2023-02-06T03:46:00.443Z,8.98
2023-02-06T03:48:41.755Z,7.50
2023-02-06T03:51:22.526Z,6.60
2023-02-06T03:53:52.146Z,7.22
2023-02-06T03:56:56.331Z,6.90
2023-02-06T03:59:23.317Z,6.72
2023-02-06T04:01:53.629Z,5.53
2023-02-06T04:04:24.964Z,5.57
2023-02-06T04:06:51.558Z,4.85
2023-02-06T04:09:18.156Z,5.03
2023-02-06T04:11:44.686Z,5.10
2023-02-06T04:14:11.263Z,5.95
2023-02-06T04:16:37.908Z,6.57
2023-02-06T04:19:04.509Z,5.35
2023-02-06T04:21:31.182Z,4.38
2023-02-06T04:23:57.709Z,4.03
2023-02-06T04:26:24.409Z,4.20
2023-02-06T04:28:51.030Z,3.60
2023-02-06T04:31:17.720Z,5.00
2023-02-06T04:33:44.355Z,4.07
2023-02-06T04:36:10.936Z,4.45
2023-02-06T04:38:37.479Z,4.22
2023-02-06T04:41:05.278Z,3.50
2023-02-06T04:43:32.651Z,4.15
2023-02-06T04:45:59.917Z,4.45
2023-02-06T04:48:26.677Z,4.55
2023-02-06T04:50:53.216Z,4.68
2023-02-06T04:53:20.977Z,4.53
2023-02-06T04:55:47.762Z,4.82
2023-02-06T04:58:14.454Z,3.38
2023-02-06T05:00:41.142Z,5.13
2023-02-06T05:03:07.735Z,3.80
2023-02-06T05:05:34.656Z,3.85
2023-02-06T05:08:01.575Z,4.00
2023-02-06T05:10:28.129Z,3.63
2023-02-06T05:12:56.094Z,3.30
2023-02-06T05:15:22.747Z,3.30
2023-02-06T05:17:49.410Z,3.20
2023-02-06T05:20:16.177Z,3.95
2023-02-06T05:22:42.729Z,3.45
2023-02-06T05:25:09.374Z,3.83
2023-02-06T05:27:36.185Z,3.40
2023-02-06T05:30:02.846Z,3.28
2023-02-06T05:32:29.506Z,3.22
2023-02-06T05:34:56.293Z,3.45
2023-02-06T05:37:23.103Z,3.00
2023-02-06T05:39:49.729Z,3.75
2023-02-06T05:42:16.317Z,3.15
2023-02-06T05:44:43.021Z,4.28
2023-02-06T05:47:09.596Z,3.63
2023-02-06T05:49:36.183Z,5.85
2023-02-06T05:52:02.918Z,4.43
2023-02-06T05:54:29.510Z,4.10
2023-02-06T05:56:57.967Z,3.17
2023-02-06T05:59:24.541Z,3.78
2023-02-06T06:01:51.217Z,4.30
2023-02-06T06:04:17.912Z,4.68
2023-02-06T06:06:44.661Z,3.72
2023-02-06T06:09:11.489Z,3.88
2023-02-06T06:11:38.542Z,3.72
2023-02-06T06:14:05.778Z,4.30
2023-02-06T06:16:32.823Z,4.97
2023-02-06T06:18:59.481Z,4.05
2023-02-06T06:21:25.989Z,4.53
2023-02-06T06:23:52.578Z,5.28
2023-02-06T06:26:19.272Z,4.65
2023-02-06T06:28:45.828Z,3.90
2023-02-06T06:31:12.767Z,6.40
2023-02-06T06:33:40.246Z,4.72
2023-02-06T06:36:08.746Z,4.60
2023-02-06T06:38:35.937Z,4.10
2023-02-06T06:41:03.383Z,4.93
2023-02-06T06:43:30.455Z,4.47
2023-02-06T06:45:57.159Z,4.50
2023-02-06T06:48:23.805Z,5.22
2023-02-06T06:50:50.442Z,4.88
2023-02-06T06:53:17.097Z,5.00
2023-02-06T06:55:43.656Z,4.93
2023-02-06T06:58:10.783Z,4.68
2023-02-06T07:00:38.723Z,5.90
2023-02-06T07:03:06.041Z,4.10
2023-02-06T07:05:32.782Z,6.25
2023-02-06T07:07:59.476Z,5.70
2023-02-06T07:10:26.735Z,5.43
2023-02-06T07:12:56.859Z,4.75
2023-02-06T07:15:23.624Z,5.82
2023-02-06T07:17:50.224Z,6.00
2023-02-06T07:20:16.969Z,6.93
2023-02-06T07:22:43.620Z,7.20
2023-02-06T07:25:10.661Z,9.13
2023-02-06T07:27:37.322Z,15.52
2023-02-06T07:30:06.454Z,10.82
2023-02-06T07:32:35.768Z,8.68
2023-02-06T07:37:28.929Z,4.57
2023-02-06T07:39:55.472Z,6.30
2023-02-06T07:42:22.044Z,10.00
2023-02-06T07:44:48.765Z,9.30
2023-02-06T07:47:15.344Z,7.28
2023-02-06T07:49:41.944Z,9.40
2023-02-06T07:52:08.962Z,9.50
2023-02-06T07:54:35.584Z,15.23
2023-02-06T07:57:02.209Z,8.02
2023-02-06T07:59:28.893Z,7.60
2023-02-06T08:01:55.478Z,5.90
2023-02-06T08:04:22.283Z,5.80
2023-02-06T08:06:48.938Z,5.65
2023-02-06T08:09:19.196Z,7.63
2023-02-06T08:11:45.767Z,4.45
2023-02-06T08:14:12.492Z,5.68
2023-02-06T08:16:39.543Z,5.97
2023-02-06T08:19:06.960Z,7.40
2023-02-06T08:21:33.521Z,8.07
2023-02-06T08:24:00.907Z,9.07
2023-02-06T08:26:29.738Z,6.80
2023-02-06T08:28:57.547Z,8.00
2023-02-06T08:31:28.562Z,6.22
2023-02-06T08:33:56.004Z,9.10
2023-02-06T08:36:24.219Z,8.23
2023-02-06T08:38:52.459Z,10.07
2023-02-06T08:41:34.596Z,5.70
2023-02-06T08:44:02.824Z,6.55
2023-02-06T08:46:32.159Z,4.80
2023-02-06T08:49:04.841Z,3.92
2023-02-06T08:51:32.422Z,4.85
2023-02-06T08:54:07.039Z,5.63
2023-02-06T08:56:35.513Z,4.00
2023-02-06T08:59:03.010Z,5.07
2023-02-06T09:01:31.746Z,4.20
2023-02-06T09:04:00.931Z,5.07
2023-02-06T09:08:55.587Z,5.05
2023-02-06T09:11:23.668Z,4.32
2023-02-06T09:13:50.780Z,4.28
2023-02-06T09:16:19.658Z,4.00
2023-02-06T09:18:46.890Z,4.05
2023-02-06T09:21:19.875Z,3.90
2023-02-06T09:23:49.629Z,9.35
2023-02-06T09:26:19.912Z,6.22
2023-02-06T09:28:46.800Z,5.78
2023-02-06T09:31:13.561Z,5.05
2023-02-06T09:33:40.461Z,4.72
2023-02-06T09:36:13.528Z,4.43
2023-02-06T09:38:45.575Z,4.40
2023-02-06T09:41:27.264Z,3.92
2023-02-06T09:44:04.258Z,4.50
2023-02-06T09:46:33.971Z,3.65
2023-02-06T09:49:09.173Z,4.15
2023-02-06T09:51:41.424Z,3.35
2023-02-06T09:54:08.006Z,3.30
2023-02-06T09:57:10.043Z,3.70
2023-02-06T09:59:43.280Z,4.35
2023-02-06T10:02:22.522Z,3.83
2023-02-06T10:05:00.221Z,4.15
2023-02-06T10:07:44.671Z,4.75
2023-02-06T10:10:20.525Z,3.65
2023-02-06T10:13:05.086Z,4.63
2023-02-06T10:15:42.690Z,4.53
2023-02-06T10:18:19.210Z,3.83
2023-02-06T10:20:55.281Z,4.25
2023-02-06T10:23:33.117Z,3.92
2023-02-06T10:26:17.142Z,3.90
2023-02-06T10:28:47.323Z,4.03
2023-02-06T10:31:22.389Z,4.70
2023-02-06T10:33:57.944Z,4.38
2023-02-06T10:36:44.665Z,4.32
2023-02-06T10:39:54.773Z,4.28
2023-02-06T10:45:34.662Z,3.55
2023-02-06T10:48:13.777Z,4.45
2023-02-06T10:50:55.043Z,3.53
2023-02-06T10:53:28.811Z,3.97
2023-02-06T10:56:03.116Z,4.68
2023-02-06T10:58:46.057Z,5.90
2023-02-06T11:01:25.659Z,3.72
2023-02-06T11:03:59.953Z,3.90
2023-02-06T11:06:28.933Z,4.97
2023-02-06T11:08:56.092Z,7.25
2023-02-06T11:11:31.721Z,4.43
2023-02-06T11:14:07.746Z,3.83
2023-02-06T11:16:37.533Z,5.10
2023-02-06T11:19:38.570Z,4.82
2023-02-06T11:22:05.790Z,5.05
2023-02-06T11:24:32.444Z,3.80
2023-02-06T11:27:01.991Z,3.58
2023-02-06T11:29:37.133Z,4.00
2023-02-06T11:32:06.710Z,4.63
2023-02-06T11:34:54.503Z,3.80
2023-02-06T11:37:37.962Z,4.47
2023-02-06T11:40:19.799Z,3.70
2023-02-06T11:43:18.207Z,3.28
2023-02-06T11:45:47.550Z,3.00
2023-02-06T11:48:38.373Z,3.42
2023-02-06T11:51:06.608Z,3.90
2023-02-06T11:53:34.056Z,3.43
2023-02-06T11:56:17.147Z,4.00
2023-02-06T11:58:45.157Z,2.95
2023-02-06T12:01:21.973Z,3.38
2023-02-06T12:03:55.253Z,2.97
2023-02-06T12:06:35.861Z,3.75
2023-02-06T12:09:09.824Z,3.58
2023-02-06T12:11:55.188Z,3.33
2023-02-06T12:14:30.835Z,3.35
2023-02-06T12:17:00.425Z,4.05
2023-02-06T12:19:31.829Z,3.30
2023-02-06T12:22:04.771Z,3.10
2023-02-06T12:24:45.304Z,4.13
2023-02-06T12:27:17.350Z,4.13
2023-02-06T12:29:59.380Z,4.70
2023-02-06T12:32:34.614Z,3.08
2023-02-06T12:35:14.472Z,3.78
2023-02-06T12:37:49.758Z,5.78
2023-02-06T12:40:32.622Z,4.65
2023-02-06T12:43:12.210Z,2.92
2023-02-06T12:45:54.214Z,5.53
2023-02-06T12:48:38.863Z,4.38
2023-02-06T12:51:13.261Z,3.47
2023-02-06T12:53:51.087Z,4.85
2023-02-06T12:56:41.371Z,3.83
2023-02-06T12:59:10.908Z,4.10
2023-02-06T13:01:40.467Z,2.67
2023-02-06T13:04:32.571Z,2.80
2023-02-06T13:07:05.253Z,3.58
2023-02-06T13:09:40.412Z,3.55
2023-02-06T13:12:14.297Z,4.03
2023-02-06T13:14:56.671Z,3.35
2023-02-06T13:17:45.099Z,3.03
2023-02-06T13:20:14.365Z,2.70
2023-02-06T13:22:45.684Z,3.55
2023-02-06T13:25:30.660Z,4.60
2023-02-06T13:28:01.317Z,3.97
2023-02-06T13:30:30.827Z,4.13
2023-02-06T13:33:14.712Z,2.67
2023-02-06T13:36:00.818Z,3.53
2023-02-06T13:38:34.923Z,3.72
2023-02-06T13:41:29.163Z,3.55
2023-02-06T13:43:55.754Z,3.35
2023-02-06T13:46:32.927Z,3.08
2023-02-06T13:49:18.073Z,3.75
2023-02-06T13:52:02.857Z,3.60
2023-02-06T13:55:02.381Z,4.75
2023-02-06T13:58:10.095Z,4.75
2023-02-06T14:00:41.270Z,4.25
2023-02-06T14:03:46.747Z,4.20
2023-02-06T14:06:38.181Z,5.50
2023-02-06T14:09:54.625Z,3.80
2023-02-06T14:12:33.993Z,3.42
2023-02-06T14:15:16.009Z,4.25
2023-02-06T14:17:57.595Z,3.92
2023-02-06T14:20:48.817Z,3.85
2023-02-06T14:23:40.187Z,4.47
2023-02-06T14:26:21.907Z,3.95
2023-02-06T14:29:13.923Z,4.68
2023-02-06T14:32:28.584Z,5.18
2023-02-06T14:35:01.202Z,4.18
2023-02-06T14:37:58.819Z,4.30
2023-02-06T14:40:29.590Z,4.97
2023-02-06T14:43:04.834Z,4.72
2023-02-06T14:45:41.605Z,5.10
2023-02-06T14:48:31.697Z,5.05
2023-02-06T14:50:58.640Z,4.45
2023-02-06T14:53:30.764Z,4.15
2023-02-06T14:56:14.712Z,4.15
2023-02-06T14:58:46.087Z,4.82
2023-02-06T15:01:20.550Z,4.22
2023-02-06T15:03:48.969Z,3.53
2023-02-06T15:06:38.469Z,3.92
2023-02-06T15:09:06.508Z,3.63
2023-02-06T15:11:33.622Z,5.10
2023-02-06T15:14:06.478Z,4.22
2023-02-06T15:16:46.691Z,3.78
2023-02-06T15:19:21.568Z,5.22
2023-02-06T15:21:49.818Z,4.60
2023-02-06T15:24:29.526Z,5.83
2023-02-06T15:26:58.888Z,5.35
2023-02-06T15:29:26.962Z,3.80
2023-02-06T15:31:57.991Z,4.45
2023-02-06T15:34:26.164Z,5.05
2023-02-06T15:36:53.246Z,4.20
2023-02-06T15:39:20.256Z,4.30
2023-02-06T15:41:50.539Z,5.60
2023-02-06T15:44:25.695Z,4.53
2023-02-06T15:46:53.130Z,4.18
2023-02-06T15:49:43.250Z,5.50
2023-02-06T15:52:30.799Z,4.60
2023-02-06T15:54:58.815Z,4.63
2023-02-06T15:57:34.007Z,4.35
2023-02-06T16:00:01.426Z,5.18
2023-02-06T16:02:36.790Z,4.22
2023-02-06T16:05:05.143Z,4.30
2023-02-06T16:07:35.897Z,4.40
2023-02-06T16:10:08.361Z,4.65
2023-02-06T16:12:37.239Z,4.10
2023-02-06T16:15:30.122Z,4.72
2023-02-06T16:18:00.061Z,5.38
2023-02-06T16:20:37.226Z,4.53
2023-02-06T16:23:22.081Z,4.28
2023-02-06T16:26:19.038Z,4.93
2023-02-06T16:28:51.684Z,14.18
2023-02-06T16:31:18.563Z,7.88
2023-02-06T16:33:47.929Z,6.07
2023-02-06T16:36:17.329Z,5.70
2023-02-06T16:38:48.432Z,5.13
2023-02-06T16:41:37.505Z,6.35
2023-02-06T16:44:10.094Z,6.15
2023-02-06T16:46:36.890Z,6.40
2023-02-06T16:49:10.381Z,5.35
2023-02-06T16:51:40.464Z,5.05
2023-02-06T16:54:09.455Z,5.70
2023-02-06T16:56:39.528Z,5.65
2023-02-06T16:59:06.261Z,6.05
2023-02-06T17:01:33.005Z,6.40
2023-02-06T17:03:59.744Z,6.68
2023-02-06T17:06:29.625Z,6.60
2023-02-06T17:08:59.058Z,5.88
2023-02-06T17:11:25.636Z,5.45
2023-02-06T17:13:52.333Z,5.50
2023-02-06T17:16:22.427Z,6.75
2023-02-06T17:18:49.809Z,4.80
2023-02-06T17:21:18.614Z,6.28
2023-02-06T17:23:45.801Z,5.68
2023-02-06T17:26:13.993Z,6.03
2023-02-06T17:28:41.032Z,5.95
2023-02-06T17:31:08.300Z,6.35
2023-02-06T17:33:35.604Z,7.18
2023-02-06T17:36:05.763Z,6.60
2023-02-06T17:38:34.090Z,6.07
2023-02-06T17:41:00.671Z,6.50
2023-02-06T17:43:29.657Z,5.85
2023-02-06T17:45:56.305Z,5.45
2023-02-06T17:48:22.985Z,9.35
2023-02-06T17:50:52.385Z,10.80
2023-02-06T17:53:19.130Z,8.45
2023-02-06T17:55:46.028Z,9.10
2023-02-06T17:58:12.669Z,9.65
2023-02-06T18:00:39.529Z,9.95
2023-02-06T18:03:06.401Z,8.27
2023-02-06T18:05:33.427Z,7.15
2023-02-06T18:08:00.112Z,11.05
2023-02-06T18:10:26.727Z,8.18
2023-02-06T18:12:53.299Z,6.97
2023-02-06T18:15:20.286Z,6.78
2023-02-06T18:17:46.993Z,8.82
2023-02-06T18:20:15.694Z,8.25
2023-02-06T18:22:42.361Z,8.57
2023-02-06T18:25:11.508Z,11.48
2023-02-06T18:30:06.239Z,7.60
2023-02-06T18:32:33.913Z,16.95
2023-02-06T18:35:00.697Z,8.98
2023-02-06T18:37:27.494Z,9.27
2023-02-06T18:39:55.491Z,6.65
2023-02-06T18:42:40.950Z,7.88
2023-02-06T18:45:08.565Z,7.55
2023-02-06T18:47:35.419Z,7.05
2023-02-06T18:50:01.972Z,6.45
2023-02-06T18:52:29.113Z,7.25
2023-02-06T18:54:55.862Z,6.82
2023-02-06T18:57:22.614Z,6.45
2023-02-06T18:59:49.273Z,4.25
2023-02-06T19:02:16.159Z,6.07
2023-02-06T19:04:42.809Z,5.80
2023-02-06T19:07:11.712Z,5.32
2023-02-06T19:09:38.736Z,4.38
2023-02-06T19:12:05.768Z,3.85
2023-02-06T19:14:32.452Z,6.25
2023-02-06T19:16:59.179Z,5.47
2023-02-06T19:19:25.885Z,6.72
2023-02-06T19:21:52.479Z,5.40
2023-02-06T19:24:19.420Z,5.80
2023-02-06T19:26:46.632Z,9.38
2023-02-06T19:29:16.655Z,7.32
2023-02-06T19:31:43.714Z,7.75
2023-02-06T19:34:10.606Z,5.07
2023-02-06T19:36:38.412Z,7.32
2023-02-06T19:39:09.348Z,7.47
2023-02-06T19:41:36.861Z,6.47
2023-02-06T19:44:06.783Z,5.57
2023-02-06T19:46:34.604Z,6.00
2023-02-06T19:49:02.685Z,5.60
2023-02-06T19:51:31.615Z,7.00
2023-02-06T19:53:59.450Z,6.55
2023-02-06T19:56:27.597Z,7.38
2023-02-06T19:58:59.122Z,6.15
2023-02-06T20:01:27.313Z,6.53
2023-02-06T20:03:55.289Z,5.68
2023-02-06T20:06:22.289Z,6.82
2023-02-06T20:08:49.351Z,6.10
2023-02-06T20:11:18.959Z,6.97
2023-02-06T20:13:47.281Z,6.30
2023-02-06T20:16:22.867Z,5.67
2023-02-06T20:18:50.314Z,6.65
2023-02-06T20:21:27.920Z,5.57
2023-02-06T20:23:57.470Z,4.65
2023-02-06T20:26:26.595Z,4.78
2023-02-06T20:31:21.225Z,6.35
2023-02-06T20:33:49.039Z,4.32
2023-02-06T20:36:18.833Z,6.43
2023-02-06T20:38:50.679Z,6.18
2023-02-06T20:41:18.010Z,4.90
2023-02-06T20:43:48.195Z,5.95
2023-02-06T20:46:19.541Z,4.88
2023-02-06T20:48:47.563Z,5.95
2023-02-06T20:51:14.755Z,6.55
2023-02-06T20:53:41.406Z,5.63
2023-02-06T20:56:12.329Z,6.05
2023-02-06T20:58:39.279Z,7.40
2023-02-06T21:01:17.880Z,4.40
2023-02-06T21:03:45.975Z,5.88
2023-02-06T21:06:13.209Z,4.65
2023-02-06T21:08:40.522Z,5.55
2023-02-06T21:11:07.913Z,6.82
2023-02-06T21:13:35.126Z,5.90
2023-02-06T21:16:02.659Z,7.53
2023-02-06T21:18:31.224Z,5.63
2023-02-06T21:21:06.627Z,6.97
2023-02-06T21:23:33.707Z,6.05
2023-02-06T21:26:00.529Z,6.45
2023-02-06T21:28:27.133Z,6.00
2023-02-06T21:31:07.652Z,7.00
2023-02-06T21:33:35.697Z,5.75
2023-02-06T21:36:03.849Z,7.75
2023-02-06T21:38:30.467Z,5.75
2023-02-06T21:41:07.125Z,6.90
2023-02-06T21:43:34.222Z,7.63
2023-02-06T21:46:01.719Z,5.72
2023-02-06T21:48:28.470Z,7.95
2023-02-06T21:50:58.128Z,6.95
2023-02-06T21:53:24.763Z,5.60
2023-02-06T21:55:51.402Z,8.10
2023-02-06T21:58:18.101Z,8.18
2023-02-06T22:00:46.461Z,8.82
2023-02-06T22:03:14.190Z,7.30
2023-02-06T22:05:40.898Z,6.72
2023-02-06T22:08:07.649Z,7.88
2023-02-06T22:10:37.909Z,7.75
2023-02-06T22:13:05.963Z,7.57
2023-02-06T22:15:33.840Z,7.25
2023-02-06T22:18:00.590Z,7.15
2023-02-06T22:20:27.546Z,8.30
2023-02-06T22:22:55.854Z,6.28
2023-02-06T22:25:22.578Z,5.97
2023-02-06T22:27:49.161Z,5.35
2023-02-06T22:30:15.919Z,7.00
2023-02-06T22:32:42.734Z,6.43
2023-02-06T22:35:09.389Z,6.13
2023-02-06T22:37:36.320Z,6.60
2023-02-06T22:40:03.240Z,6.15
2023-02-06T22:42:30.041Z,6.63
2023-02-06T22:44:56.715Z,6.45
2023-02-06T22:47:23.310Z,6.97
2023-02-06T22:49:53.577Z,5.13
2023-02-06T22:52:38.764Z,7.60
2023-02-06T22:55:05.871Z,6.63
2023-02-06T22:57:35.218Z,6.50
2023-02-06T23:00:01.962Z,7.30
2023-02-06T23:02:28.535Z,7.18
2023-02-06T23:04:55.249Z,6.03
2023-02-06T23:07:21.827Z,6.10
2023-02-06T23:09:48.466Z,4.47
2023-02-06T23:12:16.222Z,5.97
2023-02-06T23:14:43.026Z,6.60
2023-02-06T23:17:10.833Z,4.97
2023-02-06T23:19:39.211Z,5.68
2023-02-06T23:22:06.216Z,6.28
2023-02-06T23:24:32.802Z,6.97
2023-02-06T23:26:59.426Z,5.53
2023-02-06T23:29:26.116Z,4.82
2023-02-06T23:31:52.914Z,7.57
2023-02-06T23:34:23.683Z,7.40
2023-02-06T23:36:51.882Z,6.95
2023-02-06T23:39:18.499Z,6.65
2023-02-06T23:41:45.029Z,6.15
2023-02-06T23:44:11.931Z,6.88
2023-02-06T23:46:39.700Z,7.18
2023-02-06T23:49:06.781Z,6.20
2023-02-06T23:51:33.575Z,6.45
2023-02-06T23:54:00.371Z,6.53
2023-02-06T23:56:29.110Z,6.57
2023-02-06T23:58:56.964Z,7.30
